Time;durP1;ratioP1;P1;durP2;ratioP2;P2;SDS_P1;SDS_P2;PMS_P1;PMS_P2;Temp;Humidity;BMP_temperature;BMP_pressure;BME280_temperature;BME280_humidity;BME280_pressure;Samples;Min_cycle;Max_cycle;Signal;HPM_P1;HPM_P2
2021/10/22 00:00:24;;;;;;;0.30;0.30;;;;;;;11.83;65.13;97398.53;5064089;28;20167;-79
2021/10/22 00:02:50;;;;;;;0.20;0.20;;;;;;;11.77;65.04;97375.03;5045979;28;20168;-78
2021/10/22 00:05:16;;;;;;;0.20;0.20;;;;;;;11.86;64.97;97377.50;5045584;28;20063;-77
2021/10/22 00:07:42;;;;;;;0.20;0.20;;;;;;;11.87;64.90;97390.00;5061263;28;20045;-78
2021/10/22 00:10:09;;;;;;;0.20;0.20;;;;;;;11.80;65.11;97379.97;5060107;28;20491;-75
2021/10/22 00:12:35;;;;;;;0.20;0.20;;;;;;;11.85;65.05;97381.25;5057522;28;20072;-74
2021/10/22 00:15:01;;;;;;;0.20;0.20;;;;;;;11.80;65.17;97388.09;5040690;28;20041;-77
2021/10/22 00:17:27;;;;;;;0.20;0.20;;;;;;;11.86;65.20;97404.59;5057211;28;20064;-78
2021/10/22 00:19:53;;;;;;;0.20;0.20;;;;;;;11.80;65.21;97412.47;5023768;28;20389;-79
2021/10/22 00:22:18;;;;;;;0.20;0.20;;;;;;;11.86;64.86;97396.47;5022247;28;20057;-75
2021/10/22 00:24:44;;;;;;;0.25;0.25;;;;;;;11.81;65.10;97391.66;5037995;28;20060;-77
2021/10/22 00:27:11;;;;;;;0.20;0.20;;;;;;;11.81;65.20;97380.84;5037273;28;20057;-79
2021/10/22 00:29:38;;;;;;;0.20;0.20;;;;;;;11.86;65.05;97369.38;5053685;28;20044;-77
2021/10/22 00:32:04;;;;;;;0.20;0.20;;;;;;;11.82;65.04;97364.38;5037563;28;20059;-77
2021/10/22 00:34:31;;;;;;;0.30;0.30;;;;;;;11.75;65.26;97379.81;5056206;28;20061;-75
2021/10/22 00:36:58;;;;;;;0.20;0.20;;;;;;;11.78;65.10;97387.50;5055974;28;20056;-77
2021/10/22 00:39:24;;;;;;;0.30;0.30;;;;;;;11.75;65.51;97392.50;5038548;28;20127;-75
2021/10/22 00:41:50;;;;;;;0.20;0.20;;;;;;;11.75;65.42;97377.09;5036444;28;20045;-75
2021/10/22 00:44:16;;;;;;;0.20;0.20;;;;;;;11.74;65.48;97413.34;5036981;28;20148;-75
2021/10/22 00:46:42;;;;;;;0.20;0.20;;;;;;;11.75;65.34;97404.16;5036908;28;20431;-76
2021/10/22 00:49:09;;;;;;;0.30;0.30;;;;;;;11.74;65.57;97407.94;5055117;28;20057;-74
2021/10/22 00:51:36;;;;;;;0.30;0.30;;;;;;;11.69;66.00;97399.59;5036934;28;20213;-75
2021/10/22 00:54:06;;;;;;;0.20;0.20;;;;;;;11.70;65.63;97414.81;5037094;28;20124;-76
2021/10/22 00:56:34;;;;;;;0.30;0.30;;;;;;;11.72;65.97;97399.19;5037128;28;20155;-77
2021/10/22 00:58:59;;;;;;;0.20;0.20;;;;;;;11.69;65.84;97401.47;5037539;28;20606;-76
2021/10/22 01:01:26;;;;;;;0.20;0.20;;;;;;;11.69;65.88;97394.19;5057197;28;20053;-76
2021/10/22 01:03:52;;;;;;;0.20;0.20;;;;;;;11.70;65.52;97374.22;5055674;28;20064;-77
2021/10/22 01:06:19;;;;;;;0.20;0.20;;;;;;;11.72;65.64;97382.94;5037246;28;20079;-76
2021/10/22 01:08:45;;;;;;;0.20;0.20;;;;;;;11.69;65.75;97399.59;5021407;28;20049;-77
2021/10/22 01:11:13;;;;;;;0.30;0.30;;;;;;;11.62;65.84;97373.59;5053862;28;20065;-74
2021/10/22 01:13:40;;;;;;;0.20;0.20;;;;;;;11.64;65.99;97375.06;5035843;28;20063;-78
2021/10/22 01:16:05;;;;;;;0.20;0.20;;;;;;;11.61;66.07;97374.66;5035968;28;20409;-78
2021/10/22 01:18:32;;;;;;;0.20;0.20;;;;;;;11.65;65.96;97374.00;5036929;28;20080;-76
2021/10/22 01:21:04;;;;;;;0.30;0.30;;;;;;;11.60;66.17;97368.44;5055628;28;20087;-78
2021/10/22 01:23:30;;;;;;;0.20;0.20;;;;;;;11.51;66.15;97365.09;5056968;28;20063;-75
2021/10/22 01:25:57;;;;;;;0.30;0.30;;;;;;;11.57;66.34;97390.50;5038952;28;20060;-77
2021/10/22 01:28:23;;;;;;;0.30;0.30;;;;;;;11.56;66.41;97381.53;5019571;28;20152;-77
2021/10/22 01:30:49;;;;;;;0.20;0.20;;;;;;;11.58;66.23;97375.91;5020328;28;20080;-75
2021/10/22 01:33:19;;;;;;;0.22;0.22;;;;;;;11.57;66.37;97369.66;5037291;28;20045;-78
2021/10/22 01:35:46;;;;;;;0.30;0.30;;;;;;;11.55;66.58;97384.44;5025294;28;20049;-77
2021/10/22 01:38:17;;;;;;;0.20;0.20;;;;;;;11.55;66.48;97381.75;5059953;28;20103;-78
2021/10/22 01:40:43;;;;;;;0.20;0.20;;;;;;;11.52;66.64;97393.03;5038602;28;20053;-76
2021/10/22 01:43:09;;;;;;;0.20;0.20;;;;;;;11.56;66.45;97399.66;5054160;28;20072;-77
2021/10/22 01:45:36;;;;;;;0.30;0.30;;;;;;;11.61;66.12;97407.97;5036110;28;20111;-78
2021/10/22 01:48:03;;;;;;;0.30;0.30;;;;;;;11.62;66.32;97404.19;5036548;28;20061;-77
2021/10/22 01:50:30;;;;;;;0.20;0.20;;;;;;;11.63;66.04;97397.78;5021217;28;20065;-77
2021/10/22 01:52:56;;;;;;;0.20;0.20;;;;;;;11.60;66.24;97403.59;5035915;28;20616;-76
2021/10/22 01:55:21;;;;;;;0.20;0.20;;;;;;;11.58;66.25;97397.56;5036398;28;20143;-76
2021/10/22 01:57:47;;;;;;;0.30;0.30;;;;;;;11.56;66.65;97394.25;5003598;28;20060;-75
2021/10/22 02:00:13;;;;;;;0.20;0.20;;;;;;;11.55;66.31;97395.28;5035793;28;20144;-76
2021/10/22 02:02:39;;;;;;;0.30;0.30;;;;;;;11.55;66.50;97397.97;5038435;28;20067;-75
2021/10/22 02:05:05;;;;;;;0.30;0.30;;;;;;;11.53;66.74;97405.50;5034899;28;20072;-77
2021/10/22 02:07:32;;;;;;;0.30;0.30;;;;;;;11.50;66.96;97395.09;5035071;28;20068;-76
2021/10/22 02:09:58;;;;;;;0.30;0.30;;;;;;;11.50;66.81;97384.28;5019361;28;20049;-75
2021/10/22 02:12:24;;;;;;;0.20;0.20;;;;;;;11.50;66.76;97401.34;5002006;28;20082;-75
2021/10/22 02:14:52;;;;;;;0.25;0.25;;;;;;;11.51;66.82;97385.91;5020337;28;20052;-75
2021/10/22 02:17:17;;;;;;;0.20;0.20;;;;;;;11.50;66.91;97397.78;5052192;28;20071;-75
2021/10/22 02:19:43;;;;;;;0.30;0.30;;;;;;;11.50;66.94;97387.81;5053654;28;20055;-76
2021/10/22 02:22:09;;;;;;;0.30;0.30;;;;;;;11.46;67.13;97380.34;5052748;28;20049;-76
2021/10/22 02:24:37;;;;;;;0.30;0.30;;;;;;;11.44;67.34;97394.06;5035277;28;20041;-76
2021/10/22 02:27:03;;;;;;;0.20;0.20;;;;;;;11.49;67.11;97393.44;5053434;28;20060;-77
2021/10/22 02:29:28;;;;;;;0.30;0.30;;;;;;;11.47;67.13;97400.91;5035979;28;20053;-77
2021/10/22 02:31:55;;;;;;;0.20;0.20;;;;;;;11.46;67.28;97389.28;5035998;28;20556;-78
2021/10/22 02:34:22;;;;;;;0.20;0.20;;;;;;;11.44;67.17;97385.94;5040421;28;20048;-76
2021/10/22 02:36:49;;;;;;;0.30;0.30;;;;;;;11.43;67.58;97386.16;5023568;28;20052;-75
2021/10/22 02:39:16;;;;;;;0.25;0.25;;;;;;;11.40;67.47;97389.28;5040146;28;20045;-77
2021/10/22 02:41:42;;;;;;;0.20;0.20;;;;;;;11.45;67.32;97403.03;5036547;28;20068;-76
2021/10/22 02:44:08;;;;;;;0.20;0.20;;;;;;;11.44;67.57;97417.56;5036500;28;20048;-76
2021/10/22 02:46:36;;;;;;;0.30;0.30;;;;;;;11.44;67.51;97409.47;5054892;28;20060;-77
2021/10/22 02:49:02;;;;;;;0.30;0.30;;;;;;;11.45;67.57;97408.44;5057186;28;20098;-79
2021/10/22 02:51:28;;;;;;;0.20;0.20;;;;;;;11.46;67.41;97408.22;5039448;28;20083;-77
2021/10/22 02:53:55;;;;;;;0.30;0.30;;;;;;;11.45;67.39;97403.03;5038833;28;20079;-78
2021/10/22 02:56:21;;;;;;;0.30;0.30;;;;;;;11.38;67.40;97378.69;5038919;28;20136;-76
2021/10/22 02:58:48;;;;;;;0.30;0.30;;;;;;;11.48;67.25;97391.75;5038512;28;20049;-74
2021/10/22 03:01:14;;;;;;;0.20;0.20;;;;;;;11.43;67.52;97399.69;5057695;28;20045;-78
2021/10/22 03:03:40;;;;;;;0.30;0.30;;;;;;;11.48;67.51;97399.88;5043374;28;20057;-77
2021/10/22 03:06:05;;;;;;;0.30;0.30;;;;;;;11.51;67.38;97396.75;5043200;28;20125;-79
2021/10/22 03:08:31;;;;;;;0.30;0.30;;;;;;;11.46;67.39;97383.03;5042055;28;20160;-77
2021/10/22 03:10:57;;;;;;;0.20;0.20;;;;;;;11.52;67.55;97398.44;5056914;28;20057;-77
2021/10/22 03:13:23;;;;;;;0.20;0.20;;;;;;;11.55;67.20;97392.56;5039058;28;20080;-79
2021/10/22 03:15:48;;;;;;;0.30;0.30;;;;;;;11.53;67.65;97410.91;5024118;28;20056;-75
2021/10/22 03:18:14;;;;;;;0.30;0.30;;;;;;;11.50;67.46;97389.69;5040923;28;20053;-77
2021/10/22 03:20:40;;;;;;;0.20;0.20;;;;;;;11.52;67.45;97387.59;5040509;28;20053;-77
2021/10/22 03:23:06;;;;;;;0.30;0.30;;;;;;;11.54;67.08;97380.91;5040607;28;20115;-75
2021/10/22 03:25:32;;;;;;;0.30;0.30;;;;;;;11.52;67.52;97365.97;5020848;28;20079;-78
2021/10/22 03:28:07;;;;;;;0.30;0.30;;;;;;;11.53;67.32;97379.25;5036987;28;20103;-77
2021/10/22 03:30:33;;;;;;;0.30;0.30;;;;;;;11.51;67.67;97377.81;5036583;28;20634;-78
2021/10/22 03:33:00;;;;;;;0.30;0.30;;;;;;;11.58;67.11;97357.78;5038283;28;20186;-76
2021/10/22 03:35:26;;;;;;;0.30;0.30;;;;;;;11.57;67.29;97379.66;5038472;28;20044;-76
2021/10/22 03:37:52;;;;;;;0.30;0.30;;;;;;;11.55;67.08;97382.59;5038161;28;20060;-79
2021/10/22 03:40:18;;;;;;;0.30;0.30;;;;;;;11.53;67.13;97394.69;5036508;28;20048;-80
2021/10/22 03:42:44;;;;;;;0.20;0.20;;;;;;;11.55;67.30;97381.75;5054488;28;20064;-78
2021/10/22 03:45:10;;;;;;;0.30;0.30;;;;;;;11.53;67.51;97383.84;5037202;28;20048;-75
2021/10/22 03:47:36;;;;;;;0.20;0.20;;;;;;;11.50;67.46;97376.16;5036651;28;20057;-78
2021/10/22 03:50:03;;;;;;;0.30;0.30;;;;;;;11.44;67.98;97374.28;5051619;28;20056;-79
2021/10/22 03:52:28;;;;;;;0.30;0.30;;;;;;;11.40;68.20;97383.88;5035172;28;20065;-77
2021/10/22 03:54:54;;;;;;;0.20;0.20;;;;;;;11.40;68.08;97386.59;5054273;28;20055;-78
2021/10/22 03:57:20;;;;;;;0.30;0.30;;;;;;;11.35;68.43;97377.22;5019947;28;20079;-78
2021/10/22 03:59:46;;;;;;;0.30;0.30;;;;;;;11.31;68.19;97377.88;5042133;28;20433;-80
2021/10/22 04:02:12;;;;;;;0.30;0.30;;;;;;;11.32;68.42;97382.22;5028093;28;20068;-78
2021/10/22 04:04:38;;;;;;;0.25;0.25;;;;;;;11.28;68.65;97371.00;5037200;28;20434;-78
2021/10/22 04:07:03;;;;;;;0.20;0.20;;;;;;;11.29;68.58;97380.78;5035975;28;20045;-75
2021/10/22 04:09:33;;;;;;;0.30;0.30;;;;;;;11.20;69.23;97373.94;5035638;28;20049;-77
2021/10/22 04:12:00;;;;;;;0.30;0.30;;;;;;;11.19;69.03;97377.69;5054903;28;20053;-74
2021/10/22 04:14:26;;;;;;;0.30;0.30;;;;;;;11.18;68.93;97381.44;5037322;28;20056;-79
2021/10/22 04:16:53;;;;;;;0.30;0.30;;;;;;;11.19;69.19;97399.34;5022793;28;20120;-78
2021/10/22 04:19:18;;;;;;;0.30;0.30;;;;;;;11.21;69.08;97397.22;5057948;28;20106;-79
2021/10/22 04:21:44;;;;;;;0.30;0.30;;;;;;;11.10;69.21;97389.78;5056030;28;20243;-78
2021/10/22 04:24:10;;;;;;;0.30;0.30;;;;;;;11.19;69.61;97396.63;5038455;28;20139;-79
2021/10/22 04:26:36;;;;;;;0.30;0.30;;;;;;;11.10;69.19;97378.94;5040172;28;20056;-76
2021/10/22 04:29:01;;;;;;;0.30;0.30;;;;;;;11.16;68.97;97388.09;5022757;28;20115;-80
2021/10/22 04:31:27;;;;;;;0.20;0.20;;;;;;;11.27;69.02;97401.81;5037392;28;20135;-78
2021/10/22 04:33:53;;;;;;;0.30;0.30;;;;;;;11.25;69.22;97389.53;5039660;28;20088;-76
2021/10/22 04:36:19;;;;;;;0.20;0.20;;;;;;;11.23;69.22;97384.34;5045045;28;20064;-78
2021/10/22 04:41:29;;;;;;;0.30;0.30;;;;;;;11.23;69.23;97389.75;5055272;28;20053;-80
2021/10/22 04:43:54;;;;;;;0.25;0.25;;;;;;;11.19;69.48;97385.81;5037961;28;20108;-81
2021/10/22 04:46:20;;;;;;;0.30;0.30;;;;;;;11.24;69.22;97380.59;5009010;28;20049;-77
2021/10/22 04:48:47;;;;;;;0.30;0.30;;;;;;;11.29;69.25;97402.41;5039954;28;20053;-77
2021/10/22 04:51:13;;;;;;;0.30;0.30;;;;;;;11.24;69.13;97369.78;5042839;28;20080;-79
2021/10/22 04:53:39;;;;;;;0.20;0.20;;;;;;;11.29;69.22;97398.88;5046940;28;20057;-80
2021/10/22 04:56:05;;;;;;;0.30;0.30;;;;;;;11.25;69.57;97413.88;5026103;28;20079;-73
2021/10/22 04:58:30;;;;;;;0.30;0.30;;;;;;;11.23;69.79;97407.88;5037314;28;20065;-76
2021/10/22 05:00:57;;;;;;;0.30;0.30;;;;;;;11.17;69.81;97419.50;5044656;28;20040;-75
2021/10/22 05:03:23;;;;;;;0.30;0.30;;;;;;;11.23;69.74;97415.97;5067680;28;20106;-77
2021/10/22 05:05:49;;;;;;;0.30;0.30;;;;;;;11.25;69.64;97417.41;5042103;28;20044;-76
2021/10/22 05:08:14;;;;;;;0.30;0.30;;;;;;;11.25;69.53;97420.09;5029538;28;20444;-75
2021/10/22 05:10:41;;;;;;;0.30;0.30;;;;;;;11.31;69.37;97419.28;5042291;28;20044;-75
2021/10/22 05:13:07;;;;;;;0.30;0.30;;;;;;;11.38;68.98;97415.75;5037614;28;20597;-73
2021/10/22 05:15:33;;;;;;;0.47;0.47;;;;;;;11.59;68.40;97405.47;5039597;28;20056;-76
2021/10/22 05:17:59;;;;;;;0.60;0.60;;;;;;;12.19;66.50;97421.50;5046419;28;20076;-76
2021/10/22 05:20:24;;;;;;;0.50;0.50;;;;;;;12.65;64.70;97420.41;5018621;28;20084;-77
2021/10/22 05:22:51;;;;;;;0.50;0.50;;;;;;;12.92;63.83;97425.63;5060348;28;20092;-75
2021/10/22 05:25:17;;;;;;;0.30;0.30;;;;;;;12.85;63.79;97441.09;5055284;28;20063;-75
2021/10/22 05:27:43;;;;;;;0.20;0.20;;;;;;;12.60;64.60;97444.59;5059197;28;20084;-73
2021/10/22 05:30:10;;;;;;;0.30;0.30;;;;;;;12.41;65.45;97435.53;5025918;28;20041;-74
2021/10/22 05:32:38;;;;;;;0.40;0.40;;;;;;;12.90;64.37;97443.97;5045033;28;20185;-76
2021/10/22 05:35:04;;;;;;;0.40;0.40;;;;;;;12.77;64.31;97428.66;5046985;28;20044;-75
2021/10/22 05:37:30;;;;;;;0.30;0.30;;;;;;;12.77;64.30;97440.31;5060814;28;20056;-78
2021/10/22 05:39:57;;;;;;;0.30;0.30;;;;;;;12.43;65.05;97432.59;5005664;28;20060;-77
2021/10/22 05:42:23;;;;;;;0.30;0.30;;;;;;;12.22;66.40;97434.63;5023080;28;20178;-76
2021/10/22 05:44:48;;;;;;;0.30;0.30;;;;;;;12.12;66.73;97436.94;5003757;28;20132;-71
2021/10/22 05:47:15;;;;;;;0.30;0.30;;;;;;;12.02;66.90;97442.81;5033801;28;20143;-74
2021/10/22 05:49:43;;;;;;;0.50;0.50;;;;;;;12.19;66.61;97432.34;5011318;28;20096;-75
2021/10/22 05:52:09;;;;;;;0.40;0.40;;;;;;;12.23;66.35;97422.72;5031354;28;20646;-72
2021/10/22 05:54:35;;;;;;;0.30;0.30;;;;;;;12.04;66.88;97439.91;5048987;28;20404;-74
2021/10/22 05:57:01;;;;;;;0.30;0.30;;;;;;;12.01;67.42;97457.41;5067506;28;20455;-74
2021/10/22 05:59:27;;;;;;;0.30;0.30;;;;;;;11.95;67.60;97460.13;5049924;28;20048;-75
2021/10/22 06:01:53;;;;;;;0.30;0.30;;;;;;;11.88;67.97;97443.09;5067648;28;20076;-73
2021/10/22 06:04:19;;;;;;;0.30;0.30;;;;;;;11.90;68.21;97465.38;5033129;28;20067;-74
2021/10/22 06:06:45;;;;;;;0.30;0.30;;;;;;;11.86;68.05;97461.44;5050054;28;20373;-76
2021/10/22 06:09:12;;;;;;;0.30;0.30;;;;;;;11.80;67.84;97455.78;5031608;28;20061;-76
2021/10/22 06:11:38;;;;;;;0.30;0.30;;;;;;;11.76;68.00;97459.97;5051246;28;20056;-76
2021/10/22 06:14:05;;;;;;;0.30;0.30;;;;;;;11.72;67.38;97466.03;5048241;28;20076;-76
2021/10/22 06:16:31;;;;;;;0.40;0.40;;;;;;;11.79;67.01;97475.78;5065826;28;20204;-76
2021/10/22 06:19:01;;;;;;;1.10;1.10;;;;;;;12.80;63.81;97471.59;5046585;28;20607;-76
2021/10/22 06:23:54;;;;;;;0.90;0.90;;;;;;;14.83;56.59;97480.75;5032798;28;20311;-75
2021/10/22 06:26:25;;;;;;;0.90;0.90;;;;;;;15.31;54.75;97477.06;5029168;28;20045;-75
2021/10/22 06:28:51;;;;;;;0.30;0.30;;;;;;;14.68;55.46;97490.16;5029632;28;20049;-73
2021/10/22 06:31:17;;;;;;;0.30;0.30;;;;;;;14.39;56.30;97486.31;5046379;28;20052;-73
2021/10/22 06:33:43;;;;;;;0.40;0.40;;;;;;;13.59;58.24;97464.69;5049511;28;20048;-75
2021/10/22 06:36:09;;;;;;;1.00;1.00;;;;;;;15.47;53.71;97497.31;5047558;28;20384;-77
2021/10/22 06:38:35;;;;;;;1.00;1.00;;;;;;;16.08;51.96;97468.75;5049271;28;20040;-75
2021/10/22 06:41:02;;;;;;;0.80;0.80;;;;;;;16.20;51.66;97494.13;5047809;28;20097;-73
2021/10/22 06:43:29;;;;;;;0.90;0.90;;;;;;;17.74;47.27;97500.50;5047063;28;20089;-72
2021/10/22 06:45:55;;;;;;;1.00;1.00;;;;;;;17.22;47.81;97493.38;5039316;28;20102;-75
2021/10/22 06:48:21;;;;;;;1.00;1.00;;;;;;;17.53;46.89;97494.69;5063229;28;20376;-74
2021/10/22 06:50:47;;;;;;;0.40;0.40;;;;;;;16.36;49.50;97500.72;5032911;28;20072;-75
2021/10/22 06:53:13;;;;;;;0.90;0.90;;;;;;;17.33;46.99;97516.19;5049878;28;20051;-74
2021/10/22 06:55:40;;;;;;;0.30;0.30;;;;;;;16.78;48.34;97503.19;5065419;28;20060;-75
2021/10/22 06:58:06;;;;;;;0.20;0.20;;;;;;;16.07;49.50;97524.34;5049463;28;20503;-75
2021/10/22 07:00:33;;;;;;;0.20;0.20;;;;;;;15.12;51.88;97517.16;5049374;28;20044;-76
2021/10/22 07:02:59;;;;;;;0.20;0.20;;;;;;;14.72;52.27;97506.84;5050940;28;20048;-76
2021/10/22 07:07:58;;;;;;;;;;;;;;;13.97;53.43;97516.09;5046318;28;20051;-76
2021/10/22 07:10:24;;;;;;;0.60;0.60;;;;;;;14.19;53.12;97516.47;5040646;28;19967;-75
2021/10/22 07:12:50;;;;;;;0.30;0.30;;;;;;;13.48;54.00;97538.72;5057747;28;20158;-76
2021/10/22 07:15:17;;;;;;;0.22;0.22;;;;;;;13.57;54.30;97528.41;5074723;28;20044;-76
2021/10/22 07:17:45;;;;;;;0.60;0.60;;;;;;;13.62;54.19;97539.44;5022135;28;20083;-75
2021/10/22 07:20:12;;;;;;;0.30;0.30;;;;;;;13.56;54.36;97535.69;5018890;28;20495;-75
2021/10/22 07:22:47;;;;;;;0.30;0.30;;;;;;;13.51;53.97;97551.84;5070103;28;20098;-74
2021/10/22 07:25:14;;;;;;;0.40;0.40;;;;;;;13.26;54.73;97557.25;5054075;28;20048;-73
2021/10/22 07:27:40;;;;;;;0.40;0.40;;;;;;;13.64;54.08;97564.50;5036482;28;20460;-75
2021/10/22 07:30:06;;;;;;;0.50;0.50;;;;;;;13.48;54.26;97582.13;5034418;28;20060;-77
2021/10/22 07:32:32;;;;;;;0.50;0.50;;;;;;;13.95;52.72;97564.38;5050236;28;20516;-76
2021/10/22 07:34:59;;;;;;;1.30;1.30;;;;;;;15.87;48.32;97568.34;5049621;28;20056;-75
2021/10/22 07:37:24;;;;;;;1.20;1.20;;;;;;;16.98;44.88;97560.91;5036362;28;20155;-74
2021/10/22 07:39:51;;;;;;;1.20;1.20;;;;;;;18.16;42.17;97562.91;5069731;28;20124;-74
2021/10/22 07:42:17;;;;;;;1.10;1.10;;;;;;;19.13;39.39;97562.25;5046256;28;20044;-73
2021/10/22 07:44:43;;;;;;;1.00;1.00;;;;;;;19.71;38.00;97568.06;5065051;28;20056;-72
2021/10/22 07:47:09;;;;;;;1.00;1.00;;;;;;;19.97;36.93;97572.66;5047805;28;20201;-72
2021/10/22 07:49:35;;;;;;;1.08;1.08;;;;;;;20.22;35.41;97565.69;5050602;28;20155;-69
2021/10/22 07:52:01;;;;;;;1.00;1.00;;;;;;;19.81;37.27;97568.13;5048913;28;20579;-72
2021/10/22 07:54:27;;;;;;;0.90;0.90;;;;;;;20.45;35.09;97573.50;5032523;28;20437;-72
2021/10/22 07:56:53;;;;;;;0.90;0.90;;;;;;;19.50;36.10;97572.50;5031182;28;20052;-72
2021/10/22 07:59:18;;;;;;;0.90;0.90;;;;;;;18.35;37.83;97563.44;5050853;28;20151;-73
2021/10/22 08:01:44;;;;;;;0.90;0.90;;;;;;;19.97;36.13;97578.13;5017240;28;20056;-72
2021/10/22 08:04:11;;;;;;;1.00;1.00;;;;;;;19.60;36.21;97577.22;5029627;28;20106;-70
2021/10/22 08:06:38;;;;;;;1.00;1.00;;;;;;;21.57;33.03;97566.78;5050475;28;20056;-71
2021/10/22 08:09:07;;;;;;;1.00;1.00;;;;;;;20.96;34.02;97572.94;5068905;28;20177;-71
2021/10/22 08:11:32;;;;;;;0.90;0.90;;;;;;;21.09;33.40;97560.63;5030957;28;20928;-71
2021/10/22 08:13:58;;;;;;;1.00;1.00;;;;;;;22.08;31.91;97577.78;5033809;28;20109;-71
2021/10/22 08:16:25;;;;;;;1.00;1.00;;;;;;;23.22;30.34;97586.31;5050512;28;20052;-69
2021/10/22 08:18:51;;;;;;;0.90;0.90;;;;;;;23.11;29.45;97601.28;5049257;28;20403;-71
2021/10/22 08:21:22;;;;;;;0.90;0.90;;;;;;;23.71;28.56;97588.25;5024222;28;20045;-70
2021/10/22 08:23:49;;;;;;;0.90;0.90;;;;;;;21.79;31.02;97586.63;5051242;28;20052;-70
2021/10/22 08:26:16;;;;;;;1.00;1.00;;;;;;;22.84;30.90;97607.13;5033016;28;20049;-73
2021/10/22 08:28:44;;;;;;;0.20;0.20;;;;;;;20.68;33.30;97593.41;5060304;28;20144;-72
2021/10/22 08:31:09;;;;;;;0.30;0.20;;;;;;;20.15;33.89;97606.25;5034429;28;20056;-71
2021/10/22 08:33:35;;;;;;;0.20;0.20;;;;;;;18.74;36.21;97592.47;5042909;28;20056;-71
2021/10/22 08:36:03;;;;;;;0.20;0.20;;;;;;;17.35;38.61;97602.28;5056651;28;20091;-71
2021/10/22 08:38:29;;;;;;;0.20;0.20;;;;;;;16.51;41.14;97596.47;5064359;28;20064;-70
2021/10/22 08:40:56;;;;;;;0.10;0.10;;;;;;;15.91;42.00;97588.59;5050148;28;20053;-71
2021/10/22 08:43:27;;;;;;;0.20;0.20;;;;;;;14.88;44.04;97592.41;5066549;28;20048;-72
2021/10/22 08:45:54;;;;;;;0.20;0.20;;;;;;;15.25;44.12;97601.34;5048437;28;20052;-72
2021/10/22 08:48:20;;;;;;;0.20;0.20;;;;;;;14.96;44.53;97589.41;5068002;28;20148;-72
2021/10/22 08:50:47;;;;;;;0.20;0.20;;;;;;;15.10;44.71;97601.75;5034188;28;20126;-71
2021/10/22 08:53:13;;;;;;;0.20;0.20;;;;;;;15.18;44.92;97598.72;5045778;28;20527;-71
2021/10/22 08:55:39;;;;;;;0.30;0.30;;;;;;;14.95;45.62;97604.91;5050222;28;20056;-75
2021/10/22 08:58:04;;;;;;;0.30;0.30;;;;;;;15.10;44.88;97617.22;5008849;28;20145;-71
2021/10/22 09:00:31;;;;;;;0.88;0.88;;;;;;;15.49;43.22;97618.56;5048082;28;20427;-72
2021/10/22 09:03:18;;;;;;;1.15;1.15;;;;;;;15.58;42.71;97603.56;5050576;28;20049;-70
2021/10/22 09:06:03;;;;;;;1.00;1.00;;;;;;;16.68;40.80;97602.03;5046866;28;20052;-70
2021/10/22 09:08:34;;;;;;;0.30;0.30;;;;;;;16.21;41.21;97606.72;5044830;28;20063;-70
2021/10/22 09:11:01;;;;;;;0.30;0.30;;;;;;;16.21;41.31;97601.28;5046129;28;20060;-72
2021/10/22 09:13:28;;;;;;;0.30;0.30;;;;;;;15.52;42.73;97596.31;5050064;28;20125;-71
2021/10/22 09:15:56;;;;;;;1.40;1.40;;;;;;;16.80;39.84;97588.38;5048241;28;20045;-73
2021/10/22 09:18:25;;;;;;;1.20;1.20;;;;;;;17.45;39.09;97603.56;5049013;28;21075;-75
2021/10/22 09:20:52;;;;;;;1.30;1.30;;;;;;;18.42;37.19;97605.13;5065232;28;20044;-77
2021/10/22 09:23:35;;;;;;;0.20;0.20;;;;;;;17.17;39.60;97598.94;5040562;28;20107;-74
2021/10/22 09:26:23;;;;;;;0.20;0.20;;;;;;;16.30;41.74;97616.19;5013700;28;20575;-71
2021/10/22 09:28:50;;;;;;;0.20;0.20;;;;;;;15.30;44.21;97611.53;5053015;28;20056;-72
2021/10/22 09:31:21;;;;;;;0.20;0.20;;;;;;;14.49;46.58;97610.88;5044658;28;20057;-72
2021/10/22 09:33:59;;;;;;;0.20;0.20;;;;;;;14.13;47.26;97612.50;5037465;28;20131;-74
2021/10/22 09:36:39;;;;;;;0.20;0.20;;;;;;;13.90;48.03;97606.88;5059319;28;20095;-70
2021/10/22 09:41:56;;;;;;;0.30;0.30;;;;;;;13.86;48.42;97611.09;5040456;28;20410;-68
2021/10/22 09:44:30;;;;;;;0.30;0.30;;;;;;;13.96;48.10;97605.97;5027112;28;20060;-67
2021/10/22 09:47:17;;;;;;;0.30;0.30;;;;;;;14.00;48.00;97609.88;5041302;28;20048;-67
2021/10/22 09:49:45;;;;;;;0.30;0.30;;;;;;;13.94;47.04;97597.22;5059100;28;20092;-67
2021/10/22 09:52:20;;;;;;;0.30;0.30;;;;;;;14.14;46.31;97597.00;5044210;28;20053;-71
2021/10/22 09:54:47;;;;;;;1.40;1.40;;;;;;;14.94;44.28;97597.78;5052808;28;20052;-66
2021/10/22 09:57:16;;;;;;;0.40;0.40;;;;;;;15.15;44.01;97596.44;5054026;28;20056;-68
2021/10/22 09:59:43;;;;;;;0.30;0.30;;;;;;;14.62;45.02;97609.91;5015194;28;20053;-66
2021/10/22 10:02:09;;;;;;;0.30;0.30;;;;;;;14.34;45.53;97602.25;5052514;28;20068;-66
2021/10/22 10:04:36;;;;;;;0.20;0.20;;;;;;;14.28;45.61;97603.16;5050734;28;20052;-67
2021/10/22 10:09:54;;;;;;;0.30;0.30;;;;;;;14.28;45.35;97586.84;5087160;28;20063;-71
2021/10/22 10:12:21;;;;;;;0.63;0.63;;;;;;;15.16;43.71;97589.94;5065585;28;20044;-72
2021/10/22 10:14:47;;;;;;;1.10;1.10;;;;;;;16.23;41.64;97593.66;5068995;28;20055;-70
2021/10/22 10:17:13;;;;;;;0.30;0.30;;;;;;;15.34;42.47;97602.66;5083947;28;20083;-71
2021/10/22 10:19:49;;;;;;;0.80;0.80;;;;;;;15.18;41.81;97592.44;5050680;28;20148;-75
2021/10/22 10:22:17;;;;;;;0.30;0.30;;;;;;;15.26;41.32;97583.13;5066960;28;20482;-72
2021/10/22 10:24:43;;;;;;;0.30;0.30;;;;;;;15.43;40.92;97592.28;5051013;28;20052;-74
2021/10/22 10:27:18;;;;;;;0.30;0.30;;;;;;;15.42;40.45;97587.88;5050970;28;20044;-72
2021/10/22 10:29:49;;;;;;;0.30;0.30;;;;;;;14.79;41.30;97602.78;5044981;28;20103;-69
2021/10/22 10:32:20;;;;;;;0.30;0.30;;;;;;;14.25;41.87;97598.97;5049908;28;20109;-72
2021/10/22 10:34:48;;;;;;;0.30;0.30;;;;;;;14.36;41.59;97595.50;5063883;28;20123;-71
2021/10/22 10:37:35;;;;;;;0.28;0.28;;;;;;;13.81;43.10;97591.91;5083453;28;20487;-73
2021/10/22 10:40:10;;;;;;;0.30;0.30;;;;;;;13.93;42.82;97584.66;5062290;28;20075;-72
2021/10/22 10:42:39;;;;;;;0.20;0.20;;;;;;;13.99;42.95;97619.94;5066965;28;20199;-71
2021/10/22 10:45:15;;;;;;;0.20;0.20;;;;;;;13.75;43.50;97616.19;5054818;28;20052;-72
2021/10/22 10:47:43;;;;;;;0.30;0.30;;;;;;;13.72;43.84;97611.19;5071486;28;20093;-72
2021/10/22 10:50:10;;;;;;;0.20;0.20;;;;;;;13.45;43.88;97609.72;5091095;28;20067;-72
2021/10/22 10:52:40;;;;;;;0.20;0.20;;;;;;;13.25;44.59;97604.44;5089386;28;20075;-71
2021/10/22 10:55:31;;;;;;;0.20;0.20;;;;;;;13.10;44.64;97558.59;5091108;28;20064;-72
2021/10/22 10:58:09;;;;;;;0.20;0.20;;;;;;;13.12;44.92;97609.91;5068930;28;20403;-71
2021/10/22 11:00:37;;;;;;;0.20;0.20;;;;;;;13.14;45.54;97657.47;5089377;28;20048;-72
2021/10/22 11:03:03;;;;;;;0.30;0.30;;;;;;;12.52;53.23;97705.06;5069345;28;20056;-72
2021/10/22 11:05:56;;;;;;;0.30;0.30;;;;;;;11.22;67.05;97788.34;5090622;28;20122;-71
2021/10/22 11:08:25;;;;;;;0.30;0.30;;;;;;;10.18;71.13;97801.78;5066909;28;20060;-72
2021/10/22 11:11:07;;;;;;;0.30;0.30;;;;;;;9.27;74.77;97825.72;5051469;28;20071;-72
2021/10/22 11:13:42;;;;;;;0.30;0.30;;;;;;;8.47;79.33;97839.06;5070712;28;20472;-72
2021/10/22 11:16:41;;;;;;;0.30;0.30;;;;;;;8.18;81.73;97835.22;5072324;28;20058;-72
2021/10/22 11:19:18;;;;;;;0.30;0.30;;;;;;;7.83;81.32;97821.38;5064830;28;20052;-70
2021/10/22 11:21:48;;;;;;;0.40;0.40;;;;;;;7.73;81.56;97810.00;5085634;28;20147;-71
2021/10/22 11:24:19;;;;;;;0.40;0.40;;;;;;;7.82;82.30;97819.69;5056045;28;20081;-70
2021/10/22 11:26:53;;;;;;;0.40;0.40;;;;;;;7.76;79.03;97830.34;5070280;28;20095;-72
2021/10/22 11:29:20;;;;;;;0.40;0.40;;;;;;;7.95;80.32;97819.09;5067344;28;20079;-71
2021/10/22 11:31:56;;;;;;;0.30;0.30;;;;;;;8.00;76.51;97826.63;5074758;28;20048;-74
2021/10/22 11:34:24;;;;;;;0.30;0.30;;;;;;;8.00;77.83;97815.84;5076049;28;20063;-71
2021/10/22 11:37:16;;;;;;;0.40;0.40;;;;;;;8.03;77.29;97815.50;5074791;28;20044;-70
2021/10/22 11:39:49;;;;;;;0.50;0.50;;;;;;;8.32;76.51;97806.69;5084720;28;20127;-71
2021/10/22 11:42:28;;;;;;;0.80;0.80;;;;;;;9.96;70.87;97824.41;5069310;28;20048;-72
2021/10/22 11:45:05;;;;;;;0.40;0.40;;;;;;;9.36;69.94;97807.56;5038110;28;20485;-71
2021/10/22 11:47:39;;;;;;;1.05;1.05;;;;;;;10.90;66.60;97830.44;5089217;28;20172;-70
2021/10/22 11:50:18;;;;;;;0.30;0.30;;;;;;;10.59;65.16;97825.41;5091652;28;20475;-70